createdAt,value
2023-06-15T00:02:14.560Z,14.50
2023-06-15T00:04:43.120Z,14.50
2023-06-15T00:07:11.582Z,14.40
2023-06-15T00:09:39.946Z,14.40
2023-06-15T00:12:10.425Z,14.40
2023-06-15T00:14:39.062Z,14.30
2023-06-15T00:17:09.580Z,14.30
2023-06-15T00:19:38.520Z,14.20
2023-06-15T00:22:07.516Z,14.20
2023-06-15T00:24:36.039Z,14.10
2023-06-15T00:27:04.636Z,14.10
2023-06-15T00:29:42.019Z,14.10
2023-06-15T00:32:12.271Z,14.00
2023-06-15T00:34:42.472Z,14.00
2023-06-15T00:37:11.099Z,14.00
2023-06-15T00:39:44.139Z,13.90
2023-06-15T00:42:12.795Z,13.90
2023-06-15T00:44:41.401Z,13.80
2023-06-15T00:47:12.068Z,13.80
2023-06-15T00:49:40.702Z,13.80
2023-06-15T00:52:10.365Z,13.80
2023-06-15T00:54:41.799Z,13.70
2023-06-15T00:57:11.944Z,13.70
2023-06-15T00:59:40.921Z,13.70
2023-06-15T01:02:14.058Z,13.60
2023-06-15T01:04:50.347Z,13.60
2023-06-15T01:07:21.985Z,13.50
2023-06-15T01:09:51.445Z,13.50
2023-06-15T01:12:23.330Z,13.50
2023-06-15T01:14:53.410Z,13.40
2023-06-15T01:17:25.106Z,13.40
2023-06-15T01:20:05.995Z,13.40
2023-06-15T01:22:46.700Z,13.30
2023-06-15T01:25:28.258Z,13.30
2023-06-15T01:28:02.508Z,13.30
2023-06-15T01:30:36.677Z,13.20
2023-06-15T01:33:07.153Z,13.20
2023-06-15T01:35:35.759Z,13.10
2023-06-15T01:38:04.669Z,13.10
2023-06-15T01:40:35.675Z,13.10
2023-06-15T01:43:08.187Z,13.00
2023-06-15T01:45:37.724Z,13.00
2023-06-15T01:48:08.877Z,12.90
2023-06-15T01:50:38.283Z,12.90
2023-06-15T01:53:06.744Z,12.90
2023-06-15T01:55:35.306Z,12.90
2023-06-15T01:58:05.575Z,12.80
2023-06-15T02:00:34.013Z,12.80
2023-06-15T02:03:02.976Z,12.80
2023-06-15T02:05:31.746Z,12.70
2023-06-15T02:08:00.243Z,12.70
2023-06-15T02:10:28.657Z,12.70
2023-06-15T02:12:57.033Z,12.60
2023-06-15T02:15:26.799Z,12.60
2023-06-15T02:17:59.582Z,12.60
2023-06-15T02:20:29.033Z,12.50
2023-06-15T02:22:58.645Z,12.50
2023-06-15T02:25:28.911Z,12.50
2023-06-15T02:27:58.043Z,12.40
2023-06-15T02:30:28.756Z,12.40
2023-06-15T02:33:01.578Z,12.40
2023-06-15T02:35:30.639Z,12.30
2023-06-15T02:37:59.021Z,12.30
2023-06-15T02:40:27.422Z,12.30
2023-06-15T02:42:55.937Z,12.20
2023-06-15T02:45:24.441Z,12.20
2023-06-15T02:47:54.225Z,12.20
2023-06-15T02:50:22.529Z,12.20
2023-06-15T02:52:50.857Z,12.20
2023-06-15T02:55:19.324Z,12.10
2023-06-15T02:57:47.955Z,12.10
2023-06-15T03:00:18.882Z,12.10
2023-06-15T03:02:47.744Z,12.10
2023-06-15T03:05:19.789Z,12.10
2023-06-15T03:07:48.466Z,12.10
2023-06-15T03:10:17.061Z,12.10
2023-06-15T03:12:45.442Z,12.10
2023-06-15T03:15:18.651Z,12.10
2023-06-15T03:17:48.535Z,12.10
2023-06-15T03:20:19.705Z,12.10
2023-06-15T03:22:49.838Z,12.10
2023-06-15T03:25:18.579Z,12.00
2023-06-15T03:27:50.221Z,12.10
2023-06-15T03:30:18.830Z,12.10
2023-06-15T03:32:48.488Z,12.10
2023-06-15T03:35:18.534Z,12.10
2023-06-15T03:37:47.259Z,12.10
2023-06-15T03:40:15.636Z,12.10
2023-06-15T03:42:44.234Z,12.10
2023-06-15T03:45:12.954Z,12.10
2023-06-15T03:47:41.435Z,12.10
2023-06-15T03:50:12.650Z,12.10
2023-06-15T03:52:42.575Z,12.10
2023-06-15T03:55:13.529Z,12.10
2023-06-15T03:57:42.015Z,12.10
2023-06-15T04:00:12.064Z,12.10
2023-06-15T04:02:40.708Z,12.10
2023-06-15T04:05:10.441Z,12.10
2023-06-15T04:07:41.126Z,12.10
2023-06-15T04:10:12.086Z,12.20
2023-06-15T04:12:40.535Z,12.20
2023-06-15T04:15:09.774Z,12.30
2023-06-15T04:17:38.972Z,12.30
2023-06-15T04:20:08.333Z,12.40
2023-06-15T04:22:36.735Z,12.50
2023-06-15T04:25:05.984Z,12.50
2023-06-15T04:27:36.576Z,12.60
2023-06-15T04:30:06.443Z,12.70
2023-06-15T04:32:37.287Z,12.80
2023-06-15T04:35:07.379Z,12.90
2023-06-15T04:37:40.414Z,13.10
2023-06-15T04:40:11.661Z,13.30
2023-06-15T04:42:41.997Z,13.50
2023-06-15T04:45:11.325Z,13.60
2023-06-15T04:47:40.130Z,13.80
2023-06-15T04:50:09.273Z,13.90
2023-06-15T04:52:38.679Z,14.00
2023-06-15T04:55:08.196Z,14.10
2023-06-15T04:57:36.824Z,14.20
2023-06-15T05:00:09.445Z,14.30
2023-06-15T05:02:38.160Z,14.30
2023-06-15T05:05:07.294Z,14.30
2023-06-15T05:07:36.373Z,14.30
2023-06-15T05:10:05.591Z,14.30
2023-06-15T05:12:34.382Z,14.40
2023-06-15T05:15:02.869Z,14.40
2023-06-15T05:17:33.100Z,14.70
2023-06-15T05:20:01.980Z,15.00
2023-06-15T05:22:31.106Z,15.40
2023-06-15T05:24:59.671Z,15.70
2023-06-15T05:27:28.676Z,16.00
2023-06-15T05:29:57.186Z,16.30
2023-06-15T05:32:25.607Z,16.60
2023-06-15T05:34:55.420Z,16.90
2023-06-15T05:37:23.752Z,17.20
2023-06-15T05:39:52.142Z,17.40
2023-06-15T05:42:20.502Z,17.70
2023-06-15T05:44:48.915Z,17.90
2023-06-15T05:47:17.674Z,18.20
2023-06-15T05:49:46.310Z,18.50
2023-06-15T05:52:16.290Z,18.70
2023-06-15T05:54:46.734Z,18.90
2023-06-15T05:57:15.781Z,19.10
2023-06-15T05:59:47.830Z,19.20
2023-06-15T06:02:16.487Z,19.20
2023-06-15T06:04:45.174Z,19.50
2023-06-15T06:07:13.833Z,19.60
2023-06-15T06:09:43.986Z,19.80
2023-06-15T06:12:14.788Z,19.70
2023-06-15T06:14:43.694Z,19.70
2023-06-15T06:17:16.920Z,19.50
2023-06-15T06:19:53.442Z,19.30
2023-06-15T06:22:21.907Z,19.00
2023-06-15T06:24:51.865Z,18.90
2023-06-15T06:27:20.636Z,18.90
2023-06-15T06:29:49.569Z,19.00
2023-06-15T06:32:19.396Z,19.30
2023-06-15T06:34:48.505Z,19.50
2023-06-15T06:37:17.057Z,19.50
2023-06-15T06:39:45.717Z,19.40
2023-06-15T06:42:15.391Z,19.30
2023-06-15T06:44:43.858Z,19.30
2023-06-15T06:47:12.316Z,19.20
2023-06-15T06:49:40.821Z,19.20
2023-06-15T06:52:09.868Z,19.20
2023-06-15T06:54:38.454Z,19.20
2023-06-15T06:57:07.590Z,19.40
2023-06-15T06:59:43.795Z,19.80
2023-06-15T07:02:12.933Z,20.30
2023-06-15T07:04:41.372Z,20.50
2023-06-15T07:07:09.886Z,20.80
2023-06-15T07:09:38.179Z,21.10
2023-06-15T07:12:07.382Z,21.30
2023-06-15T07:14:37.217Z,21.80
2023-06-15T07:17:06.216Z,22.00
2023-06-15T07:19:34.604Z,22.40
2023-06-15T07:22:03.166Z,22.80
2023-06-15T07:24:31.638Z,23.20
2023-06-15T07:27:00.160Z,23.40
2023-06-15T07:29:29.144Z,23.70
2023-06-15T07:31:58.873Z,23.80
2023-06-15T07:34:27.797Z,24.20
2023-06-15T07:36:56.342Z,24.20
2023-06-15T07:39:24.912Z,24.40
2023-06-15T07:41:53.448Z,24.60
2023-06-15T07:44:21.975Z,24.40
2023-06-15T07:46:51.049Z,24.40
2023-06-15T07:49:29.707Z,24.60
2023-06-15T07:52:10.657Z,25.00
2023-06-15T07:54:40.028Z,25.40
2023-06-15T07:57:08.490Z,25.60
2023-06-15T07:59:36.898Z,25.10
2023-06-15T08:02:05.487Z,25.30
2023-06-15T08:04:35.599Z,25.40
2023-06-15T08:07:04.260Z,26.00
2023-06-15T08:09:32.646Z,25.90
2023-06-15T08:12:01.338Z,26.00
2023-06-15T08:14:30.028Z,26.10
2023-06-15T08:16:58.579Z,25.40
2023-06-15T08:19:26.967Z,25.30
2023-06-15T08:21:56.868Z,25.60
2023-06-15T08:24:28.456Z,25.80
2023-06-15T08:26:57.902Z,26.40
2023-06-15T08:29:26.376Z,26.20
2023-06-15T08:31:54.810Z,26.10
2023-06-15T08:34:23.198Z,26.10
2023-06-15T08:36:51.526Z,26.00
2023-06-15T08:39:22.393Z,26.00
2023-06-15T08:41:51.209Z,25.90
2023-06-15T08:44:20.821Z,26.00
2023-06-15T08:46:50.090Z,25.50
2023-06-15T08:49:18.689Z,25.50
2023-06-15T08:51:49.073Z,25.80
2023-06-15T08:54:20.022Z,26.20
2023-06-15T08:56:50.149Z,26.40
2023-06-15T08:59:18.882Z,26.70
2023-06-15T09:01:47.578Z,26.90
2023-06-15T09:04:17.833Z,26.30
2023-06-15T09:06:46.385Z,26.30
2023-06-15T09:09:15.578Z,26.70
2023-06-15T09:11:46.264Z,27.30
2023-06-15T09:14:16.467Z,27.60
2023-06-15T09:16:44.914Z,27.90
2023-06-15T09:19:17.822Z,28.40
2023-06-15T09:21:52.797Z,28.80
2023-06-15T09:24:26.681Z,28.30
2023-06-15T09:26:55.099Z,28.00
2023-06-15T09:29:24.955Z,27.60
2023-06-15T09:31:53.293Z,27.00
2023-06-15T09:34:22.345Z,26.70
2023-06-15T09:36:50.773Z,27.00
2023-06-15T09:39:24.703Z,27.10
2023-06-15T09:41:54.904Z,27.20
2023-06-15T09:44:26.503Z,27.50
2023-06-15T09:46:56.810Z,27.50
2023-06-15T09:49:27.199Z,28.30
2023-06-15T09:51:56.741Z,28.60
2023-06-15T09:54:27.300Z,29.00
2023-06-15T09:56:57.025Z,28.80
2023-06-15T09:59:27.197Z,28.50
2023-06-15T10:01:58.338Z,28.50
2023-06-15T10:04:30.823Z,29.00
2023-06-15T10:07:03.381Z,29.00
2023-06-15T10:09:35.011Z,29.20
2023-06-15T10:12:11.165Z,29.60
2023-06-15T10:14:51.457Z,29.50
2023-06-15T10:17:32.412Z,28.70
2023-06-15T10:20:10.266Z,28.60
2023-06-15T10:22:47.634Z,28.20
2023-06-15T10:25:17.339Z,28.20
2023-06-15T10:27:46.385Z,28.70
2023-06-15T10:30:27.423Z,29.00
2023-06-15T10:32:59.950Z,29.50
2023-06-15T10:35:34.210Z,30.00
2023-06-15T10:38:17.725Z,29.70
2023-06-15T10:40:49.917Z,29.60
2023-06-15T10:43:22.235Z,29.40
2023-06-15T10:45:52.204Z,29.70
2023-06-15T10:48:25.131Z,29.90
2023-06-15T10:51:03.349Z,30.20
2023-06-15T10:53:36.781Z,30.60
2023-06-15T10:56:14.265Z,30.80
2023-06-15T10:58:56.744Z,31.00
2023-06-15T11:01:28.434Z,31.20
2023-06-15T11:03:58.281Z,31.40
2023-06-15T11:06:33.287Z,31.30
2023-06-15T11:09:05.285Z,31.50
2023-06-15T11:11:35.101Z,31.80
2023-06-15T11:14:05.008Z,32.00
2023-06-15T11:16:35.768Z,30.80
2023-06-15T11:19:42.123Z,30.50
2023-06-15T11:22:12.894Z,30.50
2023-06-15T11:24:43.351Z,30.50
2023-06-15T11:27:13.663Z,30.10
2023-06-15T11:29:43.237Z,30.40
2023-06-15T11:32:13.171Z,30.60
2023-06-15T11:34:42.502Z,30.20
2023-06-15T11:37:14.593Z,29.80
2023-06-15T11:39:45.931Z,29.80
2023-06-15T11:42:15.475Z,29.80
2023-06-15T11:44:44.056Z,30.50
2023-06-15T11:47:14.808Z,30.70
2023-06-15T11:49:43.280Z,31.00
2023-06-15T11:52:11.674Z,30.80
2023-06-15T11:57:11.766Z,31.70
2023-06-15T11:59:41.234Z,31.90
2023-06-15T12:02:12.297Z,32.30
2023-06-15T12:04:42.400Z,32.70
2023-06-15T12:07:21.266Z,33.00
2023-06-15T12:09:57.991Z,33.00
2023-06-15T12:12:30.842Z,32.90
2023-06-15T12:15:00.762Z,32.70
2023-06-15T12:17:30.262Z,32.50
2023-06-15T12:20:06.489Z,32.50
2023-06-15T12:22:37.985Z,32.90
2023-06-15T12:25:07.413Z,32.80
2023-06-15T12:27:37.958Z,32.20
2023-06-15T12:30:13.455Z,31.70
2023-06-15T12:32:45.939Z,31.30
2023-06-15T12:35:30.283Z,30.90
2023-06-15T12:37:59.086Z,30.80
2023-06-15T12:40:27.587Z,30.00
2023-06-15T12:43:03.249Z,29.90
2023-06-15T12:45:32.080Z,29.60
2023-06-15T12:48:00.656Z,30.00
2023-06-15T12:50:31.670Z,30.70
2023-06-15T12:53:00.440Z,30.70
2023-06-15T12:55:29.546Z,30.80
2023-06-15T12:57:58.877Z,31.10
2023-06-15T13:00:28.246Z,31.60
2023-06-15T13:02:57.249Z,32.20
2023-06-15T13:05:34.218Z,32.50
2023-06-15T13:08:07.052Z,32.60
2023-06-15T13:10:36.490Z,32.80
2023-06-15T13:13:10.638Z,33.00
2023-06-15T13:16:13.358Z,33.00
2023-06-15T13:18:47.966Z,32.60
2023-06-15T13:21:25.622Z,32.60
2023-06-15T13:23:58.893Z,32.50
2023-06-15T13:26:34.015Z,32.40
2023-06-15T13:29:07.447Z,32.50
2023-06-15T13:31:37.276Z,32.60
2023-06-15T13:37:13.062Z,33.50
2023-06-15T13:39:45.597Z,33.40
2023-06-15T13:42:20.113Z,33.10
2023-06-15T13:44:52.903Z,32.40
2023-06-15T13:47:30.150Z,32.10
2023-06-15T13:50:08.626Z,31.60
2023-06-15T13:52:44.222Z,31.10
2023-06-15T13:55:17.111Z,31.50
2023-06-15T13:57:52.467Z,31.80
2023-06-15T14:00:24.030Z,31.50
2023-06-15T14:02:53.748Z,30.60
2023-06-15T14:05:34.059Z,30.00
2023-06-15T14:08:08.361Z,30.20
2023-06-15T14:10:39.935Z,30.30
2023-06-15T14:13:17.343Z,29.80
2023-06-15T14:18:39.702Z,29.20
2023-06-15T14:21:12.688Z,29.10
2023-06-15T14:23:51.759Z,29.00
2023-06-15T14:26:32.374Z,29.10
2023-06-15T14:29:16.329Z,29.60
2023-06-15T14:31:52.635Z,29.90
2023-06-15T14:34:32.416Z,30.30
2023-06-15T14:37:04.708Z,30.10
2023-06-15T14:39:39.523Z,30.00
2023-06-15T14:42:13.373Z,30.30
2023-06-15T14:44:47.126Z,30.50
2023-06-15T14:47:21.653Z,31.00
2023-06-15T14:49:57.301Z,31.40
2023-06-15T14:52:28.550Z,31.60
2023-06-15T14:55:07.893Z,31.70
2023-06-15T14:57:43.640Z,32.20
2023-06-15T15:00:18.334Z,32.50
2023-06-15T15:02:53.174Z,32.90
2023-06-15T15:05:22.995Z,32.90
2023-06-15T15:07:55.353Z,32.70
2023-06-15T15:10:29.801Z,32.80
2023-06-15T15:12:59.906Z,32.70
2023-06-15T15:15:29.786Z,32.70
2023-06-15T15:17:58.385Z,32.90
2023-06-15T15:20:26.875Z,33.00
2023-06-15T15:22:55.188Z,33.10
2023-06-15T15:25:25.213Z,32.80
2023-06-15T15:27:53.580Z,32.40
2023-06-15T15:30:23.147Z,31.90
2023-06-15T15:32:51.680Z,31.40
2023-06-15T15:35:23.083Z,30.60
2023-06-15T15:37:54.455Z,30.20
2023-06-15T15:40:24.460Z,29.70
2023-06-15T15:42:52.940Z,29.30
2023-06-15T15:45:21.890Z,29.30
2023-06-15T15:47:50.236Z,29.20
2023-06-15T15:50:19.501Z,29.10
2023-06-15T15:52:48.258Z,29.10
2023-06-15T15:55:16.694Z,29.10
2023-06-15T15:57:46.469Z,29.10
2023-06-15T16:00:15.920Z,29.20
2023-06-15T16:02:44.491Z,28.90
2023-06-15T16:05:13.086Z,28.70
2023-06-15T16:07:42.349Z,28.60
2023-06-15T16:10:11.776Z,28.30
2023-06-15T16:12:41.286Z,28.10
2023-06-15T16:15:12.203Z,28.00
2023-06-15T16:17:42.051Z,27.80
2023-06-15T16:20:11.264Z,27.30
2023-06-15T16:22:40.126Z,27.10
2023-06-15T16:25:09.216Z,27.00
2023-06-15T16:27:37.608Z,26.90
2023-06-15T16:30:07.644Z,26.80
2023-06-15T16:32:38.115Z,26.60
2023-06-15T16:35:07.725Z,26.40
2023-06-15T16:37:36.396Z,26.10
2023-06-15T16:40:30.745Z,26.00
2023-06-15T16:43:34.308Z,25.80
2023-06-15T16:46:21.915Z,25.90
2023-06-15T16:49:04.180Z,25.80
2023-06-15T16:51:48.206Z,25.90
2023-06-15T16:54:38.885Z,25.80
2023-06-15T16:57:44.540Z,25.80
2023-06-15T17:00:45.823Z,25.90
2023-06-15T17:03:38.737Z,26.10
2023-06-15T17:06:30.541Z,26.10
2023-06-15T17:09:13.485Z,26.10
2023-06-15T17:11:54.474Z,25.90
2023-06-15T17:14:41.910Z,25.70
2023-06-15T17:20:43.905Z,25.40
2023-06-15T17:24:05.709Z,25.40
2023-06-15T17:27:03.040Z,25.20
2023-06-15T17:30:10.347Z,25.00
2023-06-15T17:33:14.151Z,25.00
2023-06-15T17:39:24.924Z,24.90
2023-06-15T17:42:03.480Z,25.00
2023-06-15T17:45:03.658Z,25.00
2023-06-15T17:48:10.776Z,25.00
2023-06-15T17:54:32.651Z,25.10
2023-06-15T18:07:53.593Z,24.70
2023-06-15T18:11:10.336Z,24.60
2023-06-15T18:17:23.435Z,24.50
2023-06-15T18:23:13.339Z,24.20
2023-06-15T18:26:26.686Z,24.00
2023-06-15T18:35:57.388Z,23.60
2023-06-15T18:38:56.571Z,23.40
2023-06-15T18:41:54.500Z,23.30
2023-06-15T18:44:37.919Z,23.10
2023-06-15T18:51:10.496Z,22.90
2023-06-15T18:53:58.884Z,22.80
2023-06-15T18:57:11.357Z,22.70
2023-06-15T19:00:22.128Z,22.60
2023-06-15T19:03:03.060Z,22.60
2023-06-15T19:09:16.406Z,22.40
2023-06-15T19:12:27.084Z,22.30
2023-06-15T19:15:04.836Z,22.30
2023-06-15T19:18:12.516Z,22.20
2023-06-15T19:21:08.896Z,22.20
2023-06-15T19:27:31.027Z,22.00
2023-06-15T19:30:23.876Z,22.00
2023-06-15T19:37:18.835Z,21.80
2023-06-15T19:43:17.082Z,21.70
2023-06-15T19:46:11.054Z,21.60
2023-06-15T19:49:12.656Z,21.60
2023-06-15T19:52:04.132Z,21.50
2023-06-15T19:54:58.912Z,21.50
2023-06-15T20:04:21.171Z,21.30
2023-06-15T20:07:14.525Z,21.30
2023-06-15T20:10:07.279Z,21.20
2023-06-15T20:16:31.102Z,21.10
2023-06-15T20:19:19.360Z,21.10
2023-06-15T20:22:27.330Z,21.10
2023-06-15T20:25:10.414Z,21.00
2023-06-15T20:27:49.713Z,20.90
2023-06-15T20:31:20.599Z,20.90
2023-06-15T20:34:01.329Z,20.80
2023-06-15T20:37:03.959Z,20.70
2023-06-15T20:39:57.036Z,20.60
2023-06-15T20:42:50.125Z,20.50
2023-06-15T20:45:43.457Z,20.50
2023-06-15T20:51:59.607Z,20.20
2023-06-15T20:54:47.450Z,20.10
2023-06-15T21:06:26.588Z,19.90
2023-06-15T21:10:05.365Z,19.90
2023-06-15T21:16:00.231Z,19.70
2023-06-15T21:18:48.426Z,19.70
2023-06-15T21:21:51.986Z,19.60
2023-06-15T21:24:55.417Z,19.60
2023-06-15T21:27:48.447Z,19.50
2023-06-15T21:31:15.418Z,19.40
2023-06-15T21:34:27.637Z,19.40
2023-06-15T21:41:09.156Z,19.20
2023-06-15T21:47:34.049Z,18.90
2023-06-15T21:54:00.723Z,18.70
2023-06-15T21:57:10.766Z,18.70
2023-06-15T22:06:12.013Z,18.40
2023-06-15T22:09:15.613Z,18.30
2023-06-15T22:12:17.658Z,18.20
2023-06-15T22:15:24.208Z,18.20
2023-06-15T22:18:54.858Z,18.10
2023-06-15T22:22:26.206Z,18.00
2023-06-15T22:25:24.280Z,17.90
2023-06-15T22:28:02.285Z,17.70
2023-06-15T22:33:55.600Z,17.50
2023-06-15T22:40:20.577Z,17.30
2023-06-15T22:43:28.209Z,17.20
2023-06-15T22:46:02.168Z,17.10
2023-06-15T22:48:47.793Z,17.00
2023-06-15T22:51:31.567Z,17.00
2023-06-15T22:54:13.246Z,16.90
2023-06-15T22:57:10.786Z,16.90
2023-06-15T23:00:05.090Z,16.80
2023-06-15T23:05:55.359Z,16.60
2023-06-15T23:08:53.372Z,16.60
2023-06-15T23:11:54.016Z,16.50
2023-06-15T23:14:48.510Z,16.40
2023-06-15T23:20:42.179Z,16.30
2023-06-15T23:23:29.468Z,16.20
2023-06-15T23:26:32.667Z,16.20
2023-06-15T23:29:12.903Z,16.10
2023-06-15T23:35:29.607Z,15.90
2023-06-15T23:38:34.023Z,15.90
2023-06-15T23:41:31.961Z,15.80
2023-06-15T23:44:21.044Z,15.80
2023-06-15T23:47:34.478Z,15.70
2023-06-15T23:51:02.489Z,15.70
2023-06-15T23:54:08.790Z,15.60
2023-06-15T23:57:03.634Z,15.50
